Mustafa Dayi — TCZF2 — position and weather

sailwx.info

Track history (hours):
 
Tides and Currents Weather Stations Pressure Air Temp Water Temp Dewpoint Dewpoint Depression Visibility Wind Speed Wind Dir Waves Ship Positions

Mustafa Dayi

Last reported at 2016-Sep-23 03:33 UTC. Time now 2016-Sep-25 22:34 UTC.
Position N 34°30' E 032°33'.

Length 183 m; draft 7.6 m.

Type: Ship (hazmat cat A). MMSI: 271042433.

Date/timePositionNaut miles runAvg speedWind from/ knotsBaromVisibWave heightAir tempDewpointWater temp
2016-Sep-23 03:33N 34°30' E 032°33'1515.2
2016-Sep-23 02:33N 34°25' E 032°50'1414.1
2016-Sep-23 01:33N 34°23' E 033°07'1515.5
2016-Sep-23 00:33N 34°30' E 033°24'100 2.3
2016-Sep-21 05:33N 32°54' E 033°55'3216.0
2016-Sep-21 03:33N 32°22' E 033°51'1514.6
2016-Sep-21 02:33N 32°08' E 033°53'43 3.6
2016-Sep-20 14:33N 31°49' E 034°39'0 0.0
2016-Sep-20 13:27N 31°49' E 034°39'2 0.1
2016-Sep-19 19:30N 31°51' E 034°38'2 0.3
2016-Sep-19 12:21N 31°51' E 034°36'1310.9
2016-Sep-19 11:11N 32°04' E 034°35'2314.3
2016-Sep-19 09:34N 32°26' E 034°42'2814.0
2016-Sep-19 07:34N 32°53' E 034°52'8 7.8
2016-Sep-19 06:30N 32°49' E 035°01'0 0.0
2016-Sep-19 03:32N 32°49' E 035°01'0 0.0
2016-Sep-19 02:32N 32°49' E 035°01'0 0.0
2016-Sep-19 00:32N 32°49' E 035°01'0 0.0
2016-Sep-18 19:33N 32°49' E 035°01'0 0.0
2016-Sep-18 15:31N 32°49' E 035°01'0 0.0
2016-Sep-18 14:31N 32°49' E 035°01'5 1.1
2016-Sep-18 10:31N 32°54' E 034°60'0 0.0
2016-Sep-18 09:31N 32°54' E 034°60'0 0.0
2016-Sep-18 02:33N 32°54' E 034°60'0 0.0
2016-Sep-18 01:33N 32°54' E 034°60'0 0.0
2016-Sep-18 00:33N 32°54' E 034°60'0 0.0
2016-Sep-17 22:32N 32°54' E 034°60'0 0.0
2016-Sep-17 21:28N 32°54' E 034°60'0 0.0
2016-Sep-17 20:28N 32°54' E 034°60'0 0.0
2016-Sep-17 19:15N 32°54' E 034°60'4 0.8
2016-Sep-17 13:33N 32°53' E 034°54'13615.1
2016-Sep-17 04:34N 33°58' E 032°31'  
Track history (hours):
 
Tides and Currents Weather Stations Pressure Air Temp Water Temp Dewpoint Dewpoint Depression Visibility Wind Speed Wind Dir Waves Ship Positions

Mustafa Dayi

Last reported at 2016-Sep-23 03:33 UTC. Time now 2016-Sep-25 22:34 UTC.
Position N 34°30' E 032°33'.

Length 183 m; draft 7.6 m.

Type: Ship (hazmat cat A). MMSI: 271042433.

Date/timePositionNaut miles runAvg speedWind from/ knotsBaromVisibWave heightAir tempDewpointWater temp
2016-Sep-23 03:33N 34°30' E 032°33'1515.2
2016-Sep-23 02:33N 34°25' E 032°50'1414.1
2016-Sep-23 01:33N 34°23' E 033°07'1515.5
2016-Sep-23 00:33N 34°30' E 033°24'100 2.3
2016-Sep-21 05:33N 32°54' E 033°55'3216.0
2016-Sep-21 03:33N 32°22' E 033°51'1514.6
2016-Sep-21 02:33N 32°08' E 033°53'43 3.6
2016-Sep-20 14:33N 31°49' E 034°39'0 0.0
2016-Sep-20 13:27N 31°49' E 034°39'2 0.1
2016-Sep-19 19:30N 31°51' E 034°38'2 0.3
2016-Sep-19 12:21N 31°51' E 034°36'1310.9
2016-Sep-19 11:11N 32°04' E 034°35'2314.3
2016-Sep-19 09:34N 32°26' E 034°42'2814.0
2016-Sep-19 07:34N 32°53' E 034°52'8 7.8
2016-Sep-19 06:30N 32°49' E 035°01'0 0.0
2016-Sep-19 03:32N 32°49' E 035°01'0 0.0
2016-Sep-19 02:32N 32°49' E 035°01'0 0.0
2016-Sep-19 00:32N 32°49' E 035°01'0 0.0
2016-Sep-18 19:33N 32°49' E 035°01'0 0.0
2016-Sep-18 15:31N 32°49' E 035°01'0 0.0
2016-Sep-18 14:31N 32°49' E 035°01'5 1.1
2016-Sep-18 10:31N 32°54' E 034°60'0 0.0
2016-Sep-18 09:31N 32°54' E 034°60'0 0.0
2016-Sep-18 02:33N 32°54' E 034°60'0 0.0
2016-Sep-18 01:33N 32°54' E 034°60'0 0.0
2016-Sep-18 00:33N 32°54' E 034°60'0 0.0
2016-Sep-17 22:32N 32°54' E 034°60'0 0.0
2016-Sep-17 21:28N 32°54' E 034°60'0 0.0
2016-Sep-17 20:28N 32°54' E 034°60'0 0.0
2016-Sep-17 19:15N 32°54' E 034°60'4 0.8
2016-Sep-17 13:33N 32°53' E 034°54'13615.1
2016-Sep-17 04:34N 33°58' E 032°31'  

Dump ship's entire track history